Time;durP1;ratioP1;P1;durP2;ratioP2;P2;SDS_P1;SDS_P2;PMS_P1;PMS_P2;Temp;Humidity;BMP_temperature;BMP_pressure;BME280_temperature;BME280_humidity;BME280_pressure;Samples;Min_cycle;Max_cycle;Signal;HPM_P1;HPM_P2
2022/08/18 00:00:50;;;;;;;4.80;2.72;;;27.90;35.10;;;;;;5056418;28;20048;-74
2022/08/18 00:03:18;;;;;;;4.75;3.10;;;27.90;35.60;;;;;;5056401;28;20047;-74
2022/08/18 00:05:44;;;;;;;4.80;2.55;;;27.80;35.50;;;;;;5056302;28;20021;-73
2022/08/18 00:08:10;;;;;;;4.25;2.60;;;27.80;35.70;;;;;;5038261;28;20108;-75
2022/08/18 00:10:40;;;;;;;4.50;2.78;;;27.70;35.80;;;;;;5056100;28;20116;-74
2022/08/18 00:13:06;;;;;;;3.83;2.85;;;27.70;36.20;;;;;;5056114;28;20017;-77
2022/08/18 00:15:32;;;;;;;4.65;3.08;;;27.60;36.40;;;;;;5056046;28;20021;-75
2022/08/18 00:17:58;;;;;;;4.82;2.63;;;27.50;36.40;;;;;;5056003;28;20028;-75
2022/08/18 00:20:23;;;;;;;3.50;2.80;;;27.50;36.40;;;;;;5055731;28;21551;-78
2022/08/18 00:22:50;;;;;;;5.35;2.80;;;27.50;36.70;;;;;;5056091;28;20039;-77
2022/08/18 00:25:17;;;;;;;3.25;2.47;;;27.30;37.00;;;;;;5038151;28;20032;-75
2022/08/18 00:27:44;;;;;;;8.68;4.35;;;27.30;37.40;;;;;;5038532;28;20025;-77
2022/08/18 00:30:17;;;;;;;4.03;3.10;;;27.20;37.50;;;;;;5035846;28;20398;-75
2022/08/18 00:32:48;;;;;;;3.78;2.90;;;27.10;37.40;;;;;;5034678;28;20053;-77
2022/08/18 00:35:35;;;;;;;4.05;3.10;;;27.00;37.30;;;;;;5053980;28;20078;-76
2022/08/18 00:38:04;;;;;;;4.97;3.08;;;27.00;38.00;;;;;;5054465;28;20021;-77
2022/08/18 00:40:40;;;;;;;3.22;2.78;;;26.90;38.20;;;;;;5015917;28;20483;-78
2022/08/18 00:43:11;;;;;;;4.07;2.63;;;26.80;38.50;;;;;;5014376;28;20026;-74
2022/08/18 00:45:40;;;;;;;5.10;2.88;;;26.80;38.70;;;;;;5015916;28;20495;-75
2022/08/18 00:48:08;;;;;;;6.88;3.00;;;26.70;38.60;;;;;;5015853;28;20030;-73
2022/08/18 00:50:57;;;;;;;3.08;2.75;;;26.60;38.70;;;;;;5015624;28;20033;-75
2022/08/18 00:53:30;;;;;;;4.32;3.00;;;26.60;38.80;;;;;;5014430;28;20495;-75
2022/08/18 00:56:01;;;;;;;3.47;2.72;;;26.50;39.10;;;;;;5019320;28;20029;-75
2022/08/18 00:58:34;;;;;;;4.88;3.30;;;26.50;39.00;;;;;;5055424;28;20032;-76
2022/08/18 01:01:04;;;;;;;8.10;3.67;;;26.40;39.10;;;;;;5055399;28;20406;-75
2022/08/18 01:03:32;;;;;;;6.95;3.70;;;26.30;39.10;;;;;;5055037;28;20022;-73
2022/08/18 01:06:24;;;;;;;7.70;4.47;;;26.30;39.20;;;;;;5054919;28;20043;-74
2022/08/18 01:08:50;;;;;;;7.43;3.55;;;26.30;39.50;;;;;;5051635;28;20537;-74
2022/08/18 01:11:16;;;;;;;6.50;3.88;;;26.20;39.50;;;;;;5036936;28;20119;-74
2022/08/18 01:13:42;;;;;;;4.78;3.42;;;26.20;39.60;;;;;;5055119;28;20017;-77
2022/08/18 01:21:50;;;;;;;;;;;26.10;40.10;;;;;;5054976;28;20154;-75
2022/08/18 01:24:20;;;;;;;5.72;3.30;;;26.00;39.30;;;;;;5054599;28;19904;-77
2022/08/18 01:26:50;;;;;;;10.63;4.22;;;26.00;40.60;;;;;;5035902;28;20116;-75
2022/08/18 01:29:18;;;;;;;7.72;3.63;;;25.90;40.40;;;;;;5054052;28;20037;-76
2022/08/18 01:31:54;;;;;;;6.57;3.83;;;25.90;40.60;;;;;;5054431;28;20032;-74
2022/08/18 01:34:23;;;;;;;6.70;3.63;;;25.80;40.80;;;;;;5036590;28;20063;-76
2022/08/18 01:36:53;;;;;;;7.50;3.83;;;25.80;41.20;;;;;;5052755;28;20017;-74
2022/08/18 01:39:21;;;;;;;7.75;4.50;;;25.70;41.20;;;;;;5034326;28;20025;-77
2022/08/18 01:41:47;;;;;;;8.18;4.13;;;25.70;41.20;;;;;;5034255;28;20021;-77
2022/08/18 01:44:13;;;;;;;6.40;3.85;;;25.70;42.00;;;;;;5033031;28;20036;-76
2022/08/18 01:46:40;;;;;;;8.65;4.20;;;25.60;41.90;;;;;;5034196;28;20024;-76
2022/08/18 01:49:08;;;;;;;8.25;4.07;;;25.60;41.90;;;;;;5034075;28;20029;-77
2022/08/18 01:51:34;;;;;;;8.27;4.47;;;25.60;42.80;;;;;;5032830;28;20434;-75
2022/08/18 01:54:00;;;;;;;11.98;4.72;;;25.50;42.30;;;;;;5033445;28;20013;-75
2022/08/18 01:56:26;;;;;;;9.48;4.57;;;25.50;43.10;;;;;;5039038;28;20059;-76
2022/08/18 01:58:54;;;;;;;12.57;4.50;;;25.50;43.40;;;;;;5053563;28;20048;-77
2022/08/18 02:01:21;;;;;;;11.05;4.03;;;25.40;43.40;;;;;;5053841;28;20096;-75
2022/08/18 02:03:54;;;;;;;7.63;4.30;;;25.40;43.40;;;;;;5053826;28;20082;-75
2022/08/18 02:06:20;;;;;;;6.23;3.57;;;25.40;43.50;;;;;;5053791;28;20478;-75
2022/08/18 02:08:47;;;;;;;22.08;4.18;;;25.30;43.20;;;;;;5051913;28;20098;-77
2022/08/18 02:11:13;;;;;;;9.00;4.45;;;25.30;44.00;;;;;;5053634;28;20096;-76
2022/08/18 02:13:39;;;;;;;7.70;4.25;;;25.30;44.10;;;;;;5053614;28;20017;-74
2022/08/18 02:16:07;;;;;;;10.70;3.90;;;25.30;44.30;;;;;;5035734;28;20056;-75
2022/08/18 02:18:35;;;;;;;6.03;3.78;;;25.20;44.20;;;;;;5053554;28;20076;-77
2022/08/18 02:21:09;;;;;;;10.18;3.72;;;25.20;44.30;;;;;;5053349;28;20120;-75
2022/08/18 02:23:34;;;;;;;6.38;3.70;;;25.20;44.40;;;;;;5053585;28;20021;-77
2022/08/18 02:26:05;;;;;;;5.47;4.35;;;25.20;44.50;;;;;;5051443;28;20036;-76
2022/08/18 02:28:31;;;;;;;7.18;3.95;;;25.10;44.80;;;;;;5033351;28;20025;-74
2022/08/18 02:31:02;;;;;;;6.68;4.18;;;25.10;45.30;;;;;;5033408;28;20026;-74
2022/08/18 02:33:27;;;;;;;8.45;4.38;;;25.10;44.90;;;;;;5033719;28;20490;-74
2022/08/18 02:35:53;;;;;;;6.07;3.92;;;25.00;44.70;;;;;;5031963;28;20025;-75
2022/08/18 02:38:19;;;;;;;9.25;4.57;;;25.00;45.50;;;;;;5033310;28;20494;-77
2022/08/18 02:40:45;;;;;;;11.02;4.35;;;25.00;45.70;;;;;;5033290;28;20029;-75
2022/08/18 02:43:11;;;;;;;6.45;3.70;;;25.00;46.40;;;;;;5033287;28;20033;-75
2022/08/18 02:45:38;;;;;;;6.47;4.07;;;25.00;46.40;;;;;;5033120;28;20057;-77
2022/08/18 02:48:05;;;;;;;5.57;3.63;;;25.00;45.70;;;;;;5033144;28;20029;-76
2022/08/18 02:50:30;;;;;;;8.10;4.13;;;25.00;45.60;;;;;;5015278;28;20482;-76
2022/08/18 02:52:56;;;;;;;7.50;4.22;;;25.00;46.00;;;;;;5031815;28;20064;-76
2022/08/18 02:55:25;;;;;;;7.13;3.92;;;24.90;46.10;;;;;;5032322;28;20049;-76
2022/08/18 02:57:51;;;;;;;5.72;4.10;;;25.00;45.70;;;;;;5032985;28;20025;-74
2022/08/18 03:00:18;;;;;;;5.88;3.92;;;24.90;45.90;;;;;;5033328;28;20032;-76
2022/08/18 03:02:46;;;;;;;7.47;4.05;;;24.90;46.30;;;;;;5015587;28;20498;-76
2022/08/18 03:05:11;;;;;;;6.30;4.47;;;24.90;46.40;;;;;;5032748;28;20463;-74
2022/08/18 03:07:37;;;;;;;7.32;4.07;;;24.90;46.50;;;;;;5032812;28;20113;-76
2022/08/18 03:10:03;;;;;;;8.80;3.92;;;24.90;46.50;;;;;;5033126;28;20491;-76
2022/08/18 03:12:29;;;;;;;6.93;3.60;;;24.80;46.70;;;;;;5033116;28;20033;-74
2022/08/18 03:14:54;;;;;;;8.77;3.58;;;24.90;46.40;;;;;;5033270;28;20022;-75
2022/08/18 03:17:20;;;;;;;11.55;4.13;;;24.90;46.10;;;;;;5032885;28;20379;-75
2022/08/18 03:19:46;;;;;;;4.95;4.22;;;24.90;46.70;;;;;;5032078;28;20065;-75
2022/08/18 03:22:13;;;;;;;8.52;4.13;;;24.80;46.80;;;;;;5032947;28;20076;-75
2022/08/18 03:24:39;;;;;;;5.20;3.80;;;24.80;46.90;;;;;;5033021;28;20489;-74
2022/08/18 03:27:06;;;;;;;7.68;3.72;;;24.80;47.00;;;;;;5042391;28;20033;-74
2022/08/18 03:29:34;;;;;;;9.02;3.92;;;24.80;47.00;;;;;;5052407;28;20433;-74
2022/08/18 03:32:02;;;;;;;5.18;3.95;;;24.80;47.40;;;;;;5034922;28;20036;-77
2022/08/18 03:34:28;;;;;;;9.70;4.30;;;24.80;47.40;;;;;;5047757;28;20025;-74
2022/08/18 03:36:54;;;;;;;5.88;4.35;;;24.70;47.40;;;;;;5015314;28;20029;-75
2022/08/18 03:39:22;;;;;;;15.70;4.70;;;24.70;47.20;;;;;;5032854;28;20036;-75
2022/08/18 03:41:49;;;;;;;5.00;3.97;;;24.70;47.30;;;;;;5032819;28;20030;-75
2022/08/18 03:44:15;;;;;;;5.70;4.03;;;24.70;47.20;;;;;;5031678;28;20061;-77
2022/08/18 03:46:43;;;;;;;8.63;4.10;;;24.70;47.70;;;;;;5032805;28;20060;-74
2022/08/18 03:49:09;;;;;;;7.03;4.38;;;24.70;47.60;;;;;;5032796;28;20021;-74
2022/08/18 03:51:35;;;;;;;6.85;3.90;;;24.70;47.40;;;;;;5032728;28;20382;-76
2022/08/18 03:54:03;;;;;;;9.18;4.05;;;24.70;47.20;;;;;;5032416;28;20021;-77
2022/08/18 03:56:32;;;;;;;4.97;4.00;;;24.70;47.00;;;;;;5036740;28;20074;-77
2022/08/18 03:59:01;;;;;;;9.02;4.25;;;24.70;46.80;;;;;;5034568;28;20112;-77
2022/08/18 04:01:31;;;;;;;13.55;3.92;;;24.70;46.40;;;;;;5052486;28;20017;-74
2022/08/18 04:04:01;;;;;;;5.63;4.28;;;24.70;46.50;;;;;;5052661;28;20378;-76
2022/08/18 04:06:39;;;;;;;5.95;3.88;;;24.70;46.90;;;;;;5052318;28;20096;-75
2022/08/18 04:09:10;;;;;;;5.57;3.70;;;24.70;48.00;;;;;;5052316;28;20036;-77
2022/08/18 04:11:37;;;;;;;6.45;4.22;;;24.70;47.70;;;;;;5052367;28;20021;-75
2022/08/18 04:14:04;;;;;;;8.50;4.43;;;24.70;47.40;;;;;;5052295;28;20048;-76
2022/08/18 04:16:31;;;;;;;4.05;3.40;;;24.70;47.00;;;;;;5052316;28;20477;-77
2022/08/18 04:19:03;;;;;;;9.57;3.63;;;24.70;46.80;;;;;;5055702;28;20033;-78
2022/08/18 04:21:32;;;;;;;4.57;3.78;;;24.70;46.80;;;;;;5055624;28;20400;-76
2022/08/18 04:24:03;;;;;;;9.05;4.15;;;24.70;47.00;;;;;;5055753;28;20534;-75
2022/08/18 04:26:31;;;;;;;7.30;4.30;;;24.70;46.90;;;;;;5033462;28;20033;-75
2022/08/18 04:28:59;;;;;;;5.85;3.40;;;24.60;46.90;;;;;;5017897;28;20475;-76
2022/08/18 04:31:26;;;;;;;7.35;3.65;;;24.60;47.00;;;;;;5035708;28;20052;-76
2022/08/18 04:33:52;;;;;;;5.07;3.58;;;24.70;47.00;;;;;;5035613;28;20471;-76
2022/08/18 04:36:17;;;;;;;6.82;3.53;;;24.70;47.30;;;;;;5034275;28;20029;-76
2022/08/18 04:38:43;;;;;;;7.93;4.13;;;24.70;47.30;;;;;;5035578;28;20021;-77
2022/08/18 04:41:11;;;;;;;9.73;4.18;;;24.70;47.30;;;;;;5035491;28;20048;-78
2022/08/18 04:43:37;;;;;;;8.13;3.55;;;24.70;47.40;;;;;;5035414;28;20017;-75
2022/08/18 04:46:05;;;;;;;6.65;3.78;;;24.70;47.30;;;;;;5035324;28;20017;-78
2022/08/18 04:48:37;;;;;;;8.25;4.80;;;24.70;47.40;;;;;;5035187;28;20108;-77
2022/08/18 04:51:15;;;;;;;6.85;3.85;;;24.70;47.50;;;;;;5034047;28;20030;-75
2022/08/18 04:53:44;;;;;;;7.63;4.45;;;24.70;47.40;;;;;;5035346;28;20076;-78
2022/08/18 04:56:26;;;;;;;6.25;3.63;;;24.80;47.80;;;;;;5036121;28;20493;-75
2022/08/18 04:58:58;;;;;;;10.57;4.20;;;24.80;47.80;;;;;;5051634;28;20083;-75
2022/08/18 05:01:30;;;;;;;5.75;3.90;;;24.80;47.90;;;;;;5037803;28;20105;-73
2022/08/18 05:03:57;;;;;;;6.43;3.97;;;24.80;48.00;;;;;;5033040;28;20028;-74
2022/08/18 05:06:25;;;;;;;25.70;5.32;;;24.80;47.80;;;;;;5034073;28;20041;-76
2022/08/18 05:08:57;;;;;;;5.75;3.63;;;24.80;47.90;;;;;;5035005;28;20026;-75
2022/08/18 05:11:27;;;;;;;8.20;4.07;;;24.80;47.80;;;;;;5034944;28;20021;-76
2022/08/18 05:13:58;;;;;;;10.68;3.78;;;24.90;48.00;;;;;;5035170;28;20022;-77
2022/08/18 05:16:25;;;;;;;6.57;4.05;;;24.90;48.10;;;;;;5032291;28;20032;-76
2022/08/18 05:18:52;;;;;;;9.85;4.25;;;24.90;47.80;;;;;;5035754;28;20100;-77
2022/08/18 05:21:19;;;;;;;4.95;3.67;;;24.90;47.90;;;;;;5035792;28;20132;-75
2022/08/18 05:23:47;;;;;;;8.05;4.22;;;25.00;48.00;;;;;;5034678;28;20022;-77
2022/08/18 05:26:14;;;;;;;6.07;3.80;;;25.00;48.20;;;;;;5034625;28;20026;-76
2022/08/18 05:28:43;;;;;;;5.38;3.72;;;25.00;48.00;;;;;;5033144;28;20033;-75
2022/08/18 05:31:12;;;;;;;7.03;4.10;;;25.00;48.10;;;;;;5034503;28;20378;-76
2022/08/18 05:33:39;;;;;;;11.40;4.00;;;25.10;48.10;;;;;;5034279;28;20483;-75
2022/08/18 05:36:28;;;;;;;11.52;4.15;;;25.10;48.00;;;;;;5032173;28;20021;-77
2022/08/18 05:39:03;;;;;;;7.57;3.90;;;25.10;48.10;;;;;;5039676;28;20026;-76
2022/08/18 05:41:40;;;;;;;13.25;4.85;;;25.20;48.10;;;;;;5033126;28;20033;-77
2022/08/18 05:44:08;;;;;;;5.30;3.55;;;25.20;48.00;;;;;;5034460;28;20076;-76
2022/08/18 05:46:46;;;;;;;5.78;3.92;;;25.20;48.00;;;;;;5035327;28;20021;-77
2022/08/18 05:49:13;;;;;;;13.15;4.70;;;25.20;48.00;;;;;;5033568;28;20040;-75
2022/08/18 05:51:45;;;;;;;5.45;3.75;;;25.30;48.10;;;;;;5034898;28;20017;-73
2022/08/18 05:57:04;;;;;;;6.18;4.00;;;25.30;48.30;;;;;;5041628;28;20032;-77
2022/08/18 05:59:37;;;;;;;8.38;4.53;;;25.30;48.30;;;;;;5054560;28;20480;-77
2022/08/18 06:02:27;;;;;;;8.23;4.50;;;25.30;48.50;;;;;;5019682;28;20489;-75
2022/08/18 06:05:13;;;;;;;13.77;4.75;;;25.30;48.60;;;;;;5012958;28;20458;-73
2022/08/18 06:07:49;;;;;;;11.30;4.63;;;25.40;48.70;;;;;;5034113;28;20025;-76
2022/08/18 06:10:15;;;;;;;8.82;4.53;;;25.40;48.60;;;;;;5036738;28;20029;-70
2022/08/18 06:12:44;;;;;;;7.38;4.35;;;25.40;48.80;;;;;;5033798;28;20072;-70
2022/08/18 06:15:15;;;;;;;9.30;4.18;;;25.40;48.80;;;;;;5035114;28;20041;-70
2022/08/18 06:18:00;;;;;;;9.57;4.38;;;25.50;48.70;;;;;;5035263;28;20096;-71
2022/08/18 06:20:48;;;;;;;6.75;3.78;;;25.50;48.70;;;;;;5032090;28;20073;-70
2022/08/18 06:23:39;;;;;;;6.32;3.80;;;25.50;48.60;;;;;;5033147;28;20487;-71
2022/08/18 06:26:11;;;;;;;17.33;4.45;;;25.60;48.80;;;;;;5033322;28;20053;-71
2022/08/18 06:28:52;;;;;;;6.78;3.83;;;25.60;49.00;;;;;;5031606;28;20025;-71
2022/08/18 06:31:28;;;;;;;6.22;3.85;;;25.60;49.10;;;;;;5033410;28;20021;-70
2022/08/18 06:33:54;;;;;;;7.22;4.30;;;25.70;49.40;;;;;;5032829;28;20021;-70
2022/08/18 06:36:54;;;;;;;11.20;4.30;;;25.70;49.30;;;;;;5033389;28;20032;-70
2022/08/18 06:39:33;;;;;;;6.10;4.45;;;25.70;49.20;;;;;;5033563;28;20025;-70
2022/08/18 06:41:58;;;;;;;9.15;3.83;;;25.80;49.10;;;;;;5036380;28;20103;-70
2022/08/18 06:44:36;;;;;;;10.25;4.40;;;25.90;49.20;;;;;;5032171;28;20084;-70
2022/08/18 06:47:31;;;;;;;8.00;4.15;;;25.90;49.00;;;;;;5033257;28;20026;-71
2022/08/18 06:50:11;;;;;;;5.50;4.35;;;26.00;48.90;;;;;;5032023;28;20475;-71
2022/08/18 06:52:50;;;;;;;8.00;4.30;;;26.10;48.80;;;;;;5031948;28;20017;-70
2022/08/18 06:55:18;;;;;;;4.93;4.10;;;26.10;48.90;;;;;;5033141;28;20017;-72
2022/08/18 06:57:59;;;;;;;8.85;4.50;;;26.20;48.90;;;;;;5033240;28;20088;-71
2022/08/18 07:00:32;;;;;;;8.05;4.50;;;26.20;48.90;;;;;;5032991;28;20033;-71
2022/08/18 07:03:07;;;;;;;5.88;3.90;;;26.30;49.00;;;;;;5033188;28;20056;-71
2022/08/18 07:05:37;;;;;;;9.18;3.88;;;26.40;48.80;;;;;;5032047;28;20432;-71
2022/08/18 07:08:16;;;;;;;6.00;4.40;;;26.50;48.60;;;;;;5033038;28;20475;-71
2022/08/18 07:10:45;;;;;;;7.13;4.43;;;26.60;48.60;;;;;;5033019;28;20025;-71
2022/08/18 07:13:15;;;;;;;5.07;4.30;;;26.70;48.50;;;;;;5032969;28;20687;-71
2022/08/18 07:15:44;;;;;;;7.72;4.53;;;26.80;48.00;;;;;;5031681;28;20025;-71
2022/08/18 07:18:11;;;;;;;8.57;4.80;;;26.80;47.90;;;;;;5031581;28;20417;-71
2022/08/18 07:20:53;;;;;;;6.45;4.55;;;26.90;47.70;;;;;;5014952;28;20044;-71
2022/08/18 07:23:27;;;;;;;8.63;5.75;;;27.00;47.60;;;;;;5032910;28;20063;-71
2022/08/18 07:26:07;;;;;;;5.80;4.32;;;27.20;47.40;;;;;;5032762;28;20026;-71
2022/08/18 07:28:35;;;;;;;23.25;5.00;;;27.20;47.10;;;;;;5031191;28;20033;-70
2022/08/18 07:31:14;;;;;;;6.03;4.88;;;27.40;47.20;;;;;;5032613;28;20026;-70
2022/08/18 07:33:43;;;;;;;14.85;5.30;;;27.50;46.80;;;;;;5032619;28;20018;-71
2022/08/18 07:36:11;;;;;;;8.15;4.38;;;27.50;46.50;;;;;;5032640;28;20043;-71
2022/08/18 07:38:50;;;;;;;7.65;4.70;;;27.60;46.60;;;;;;5031217;28;20042;-71
2022/08/18 07:41:21;;;;;;;6.93;4.20;;;27.70;46.70;;;;;;5031666;28;20092;-70
2022/08/18 07:44:23;;;;;;;9.25;4.32;;;27.90;46.80;;;;;;5032690;28;20068;-71
2022/08/18 07:47:02;;;;;;;5.03;4.43;;;28.00;46.40;;;;;;5029792;28;20041;-70
2022/08/18 07:49:34;;;;;;;8.35;4.53;;;28.10;46.20;;;;;;5032484;28;20382;-70
2022/08/18 07:52:07;;;;;;;8.73;4.75;;;28.30;46.00;;;;;;5033197;28;20024;-71
2022/08/18 07:54:39;;;;;;;5.25;4.65;;;28.40;45.70;;;;;;5036398;28;20528;-70
2022/08/18 07:57:11;;;;;;;7.20;4.72;;;28.50;45.40;;;;;;5043299;28;20033;-70
2022/08/18 08:00:01;;;;;;;5.53;4.10;;;28.50;45.20;;;;;;5056015;28;20297;-70
2022/08/18 08:02:27;;;;;;;9.50;4.53;;;28.60;45.20;;;;;;5056194;28;20025;-71
2022/08/18 08:05:13;;;;;;;7.95;4.50;;;28.70;45.00;;;;;;5056164;28;20025;-71
2022/08/18 08:07:49;;;;;;;6.85;4.07;;;28.80;45.00;;;;;;5056154;28;20033;-71
2022/08/18 08:10:23;;;;;;;6.93;4.53;;;28.90;44.80;;;;;;5038293;28;20037;-71
2022/08/18 08:13:16;;;;;;;7.20;5.03;;;29.00;44.50;;;;;;5054753;28;20039;-71
2022/08/18 08:16:00;;;;;;;11.70;5.35;;;29.10;44.60;;;;;;5055984;28;20017;-71
2022/08/18 08:18:47;;;;;;;6.20;4.57;;;29.20;44.10;;;;;;5056008;28;20056;-71
2022/08/18 08:21:17;;;;;;;8.55;4.68;;;29.30;44.10;;;;;;5055587;28;20159;-72
2022/08/18 08:24:04;;;;;;;6.00;4.65;;;29.40;43.90;;;;;;5056084;28;20533;-71
2022/08/18 08:27:00;;;;;;;5.63;4.30;;;29.40;43.60;;;;;;5053248;28;20074;-71
2022/08/18 08:29:49;;;;;;;7.18;4.65;;;29.40;43.70;;;;;;5006736;28;20045;-71
2022/08/18 08:32:23;;;;;;;5.57;4.35;;;29.50;43.50;;;;;;4985551;28;20451;-71
2022/08/18 08:35:18;;;;;;;;;;;29.50;43.60;;;;;;5018318;28;20018;-71
2022/08/18 08:37:52;;;;;;;;;;;29.60;43.90;;;;;;5022884;28;19905;-71
2022/08/18 08:40:26;;;;;;;6.10;4.10;;;29.70;43.90;;;;;;5035609;28;20342;-71
2022/08/18 08:42:59;;;;;;;5.30;3.95;;;29.80;43.60;;;;;;5035598;28;20032;-71
2022/08/18 08:45:56;;;;;;;4.50;4.10;;;29.90;43.20;;;;;;5034285;28;20546;-71
2022/08/18 08:48:28;;;;;;;6.78;3.90;;;30.10;43.40;;;;;;5031014;28;20060;-71
2022/08/18 08:51:00;;;;;;;9.15;4.47;;;30.30;42.70;;;;;;5017539;28;20021;-71
2022/08/18 08:53:34;;;;;;;7.05;3.95;;;30.50;42.40;;;;;;5035279;28;20025;-71
2022/08/18 08:56:06;;;;;;;4.90;4.35;;;30.60;42.00;;;;;;5035214;28;20472;-71
2022/08/18 08:58:43;;;;;;;6.30;3.85;;;30.70;41.60;;;;;;5053597;28;20029;-70
2022/08/18 09:01:19;;;;;;;8.18;4.85;;;30.80;41.10;;;;;;5037298;28;20017;-71
2022/08/18 09:04:05;;;;;;;6.07;3.90;;;30.90;41.00;;;;;;5055056;28;20104;-71
2022/08/18 09:06:58;;;;;;;4.97;4.47;;;30.90;40.90;;;;;;5054983;28;20025;-71
2022/08/18 09:09:26;;;;;;;5.68;4.57;;;31.00;40.70;;;;;;5037096;28;20025;-71
2022/08/18 09:12:18;;;;;;;8.63;4.07;;;31.10;40.30;;;;;;5053520;28;20364;-71
2022/08/18 09:15:17;;;;;;;7.60;4.70;;;31.00;40.40;;;;;;5054901;28;20402;-71
2022/08/18 09:18:05;;;;;;;11.80;6.53;;;31.10;40.50;;;;;;5053466;28;20024;-71
2022/08/18 09:21:04;;;;;;;9.02;5.60;;;31.00;39.90;;;;;;5054740;28;20114;-71
2022/08/18 09:23:51;;;;;;;13.98;5.55;;;31.00;40.10;;;;;;5033279;28;20430;-71
2022/08/18 09:26:40;;;;;;;7.65;5.40;;;30.90;40.00;;;;;;5046953;28;20030;-71
2022/08/18 09:29:48;;;;;;;9.48;5.15;;;30.90;40.00;;;;;;5019174;28;20033;-71
2022/08/18 09:32:20;;;;;;;9.63;5.20;;;30.80;40.30;;;;;;4973511;28;20031;-70
2022/08/18 09:34:50;;;;;;;10.77;5.47;;;30.70;40.10;;;;;;4973600;28;20126;-71
2022/08/18 09:37:26;;;;;;;9.52;4.60;;;30.70;40.20;;;;;;4973576;28;20034;-71
2022/08/18 09:43:07;;;;;;;9.43;4.88;;;30.70;40.80;;;;;;4973740;28;20520;-71
2022/08/18 09:45:33;;;;;;;10.80;5.65;;;30.70;40.50;;;;;;4973481;28;20039;-71
2022/08/18 09:48:27;;;;;;;7.57;4.78;;;30.70;40.40;;;;;;4973316;28;20081;-71
2022/08/18 09:51:00;;;;;;;9.00;5.60;;;30.70;40.50;;;;;;4973296;28;20157;-71
2022/08/18 09:53:47;;;;;;;11.85;6.38;;;30.80;40.30;;;;;;4957130;28;20019;-71
2022/08/18 09:56:37;;;;;;;11.90;5.63;;;30.90;40.40;;;;;;4973164;28;20035;-71
2022/08/18 09:59:04;;;;;;;10.00;6.00;;;31.00;40.40;;;;;;4953938;29;20035;-71
2022/08/18 10:01:33;;;;;;;8.68;5.80;;;31.00;40.00;;;;;;4953796;29;20056;-71
2022/08/18 10:04:14;;;;;;;8.00;5.47;;;31.10;39.80;;;;;;5010612;28;20115;-71
2022/08/18 10:06:42;;;;;;;11.13;6.45;;;31.20;39.70;;;;;;5014135;28;20030;-71
2022/08/18 10:09:42;;;;;;;10.43;5.97;;;31.20;39.20;;;;;;5014109;28;20026;-71
2022/08/18 10:12:13;;;;;;;11.82;6.00;;;31.20;39.60;;;;;;5014125;28;20030;-71
2022/08/18 10:15:11;;;;;;;11.25;6.00;;;31.30;39.40;;;;;;5013578;28;20402;-71
2022/08/18 10:17:54;;;;;;;10.82;5.53;;;31.30;39.50;;;;;;4980841;28;20045;-71
2022/08/18 10:20:37;;;;;;;8.55;5.18;;;31.30;39.20;;;;;;5013635;28;20026;-71
2022/08/18 10:23:06;;;;;;;8.80;5.93;;;31.30;39.30;;;;;;5013853;28;20442;-70
2022/08/18 10:25:41;;;;;;;12.23;6.10;;;31.40;38.80;;;;;;5024810;28;20033;-71
2022/08/18 10:28:10;;;;;;;12.85;6.05;;;31.40;38.70;;;;;;5049947;28;20021;-71
2022/08/18 10:30:36;;;;;;;8.00;4.57;;;31.30;38.80;;;;;;5053320;28;20059;-71
2022/08/18 10:33:08;;;;;;;10.88;5.65;;;31.40;39.10;;;;;;5053287;28;20059;-71
2022/08/18 10:35:34;;;;;;;12.25;5.35;;;31.40;39.20;;;;;;5053332;28;20025;-70
2022/08/18 10:38:28;;;;;;;10.32;5.68;;;31.60;39.10;;;;;;5053312;28;20017;-71
2022/08/18 10:41:10;;;;;;;6.47;4.78;;;31.80;39.00;;;;;;5053292;28;20025;-71
2022/08/18 10:43:48;;;;;;;10.00;5.47;;;32.10;38.30;;;;;;5053143;28;20033;-71
2022/08/18 10:46:20;;;;;;;9.30;5.68;;;32.40;37.40;;;;;;5053106;28;20104;-70
2022/08/18 10:49:14;;;;;;;24.42;5.45;;;32.60;36.90;;;;;;5053054;28;20070;-71
2022/08/18 10:51:53;;;;;;;7.95;5.65;;;32.70;36.80;;;;;;5053121;28;20025;-71
2022/08/18 10:54:43;;;;;;;8.55;4.75;;;32.80;35.70;;;;;;5052944;28;20099;-71
2022/08/18 10:57:48;;;;;;;5.50;4.57;;;32.80;36.40;;;;;;5044269;28;20032;-71
2022/08/18 11:00:18;;;;;;;;;;;32.80;36.20;;;;;;5000691;28;20136;-71
2022/08/18 11:02:56;;;;;;;6.07;4.85;;;32.90;36.90;;;;;;5033019;28;19912;-71
2022/08/18 11:05:26;;;;;;;6.90;4.53;;;33.00;35.20;;;;;;5033036;28;20108;-71
2022/08/18 11:08:02;;;;;;;6.10;4.65;;;33.10;35.80;;;;;;5031691;28;20120;-71
2022/08/18 11:10:43;;;;;;;4.75;4.07;;;33.20;35.10;;;;;;5032994;28;20052;-72
2022/08/18 11:13:12;;;;;;;7.72;4.80;;;33.30;34.60;;;;;;5033109;28;20490;-72
2022/08/18 11:15:40;;;;;;;10.60;5.00;;;33.40;34.10;;;;;;5032880;28;20029;-71
2022/08/18 11:18:12;;;;;;;10.48;5.53;;;33.40;33.90;;;;;;5032884;28;20094;-71
2022/08/18 11:20:39;;;;;;;11.70;5.38;;;33.30;33.70;;;;;;5031438;28;20045;-71
2022/08/18 11:23:13;;;;;;;9.55;5.57;;;33.30;34.00;;;;;;5032725;28;20475;-71
2022/08/18 11:25:40;;;;;;;7.90;4.57;;;33.20;33.90;;;;;;5032840;28;20105;-71
2022/08/18 11:28:22;;;;;;;7.18;4.70;;;33.10;34.00;;;;;;5036264;28;20029;-71
2022/08/18 11:30:51;;;;;;;7.50;5.28;;;33.10;34.50;;;;;;5036813;28;20030;-71
2022/08/18 11:33:20;;;;;;;9.13;4.65;;;33.00;34.40;;;;;;5036651;28;20022;-71
2022/08/18 11:35:52;;;;;;;7.43;4.95;;;33.00;34.80;;;;;;5036814;28;20022;-71
2022/08/18 11:38:18;;;;;;;7.90;5.57;;;33.00;34.50;;;;;;5036797;28;20029;-71
2022/08/18 11:40:50;;;;;;;5.85;4.47;;;32.90;34.20;;;;;;5036710;28;20026;-71
2022/08/18 11:43:30;;;;;;;9.93;4.65;;;32.90;34.30;;;;;;5035309;28;20026;-71
2022/08/18 11:46:20;;;;;;;9.55;5.22;;;32.90;35.30;;;;;;5036604;28;20075;-71
2022/08/18 11:48:49;;;;;;;10.93;4.78;;;32.90;35.60;;;;;;5018759;28;20032;-71
2022/08/18 11:51:16;;;;;;;9.73;4.65;;;32.90;35.70;;;;;;5036457;28;20040;-71
2022/08/18 11:53:48;;;;;;;7.90;4.70;;;32.90;35.90;;;;;;5036443;28;20025;-71
2022/08/18 11:56:19;;;;;;;16.40;5.10;;;32.90;35.70;;;;;;5034862;28;20045;-71
2022/08/18 11:58:55;;;;;;;18.23;5.70;;;32.90;35.40;;;;;;5056425;28;20466;-73
2022/08/18 12:01:34;;;;;;;13.52;5.03;;;32.90;35.50;;;;;;5056154;28;20029;-70
2022/08/18 12:04:12;;;;;;;9.95;4.53;;;32.90;36.00;;;;;;5038249;28;20078;-71
2022/08/18 12:07:01;;;;;;;11.70;4.57;;;32.90;36.10;;;;;;5054705;28;20106;-71
2022/08/18 12:09:46;;;;;;;9.48;4.53;;;33.00;36.20;;;;;;5031643;28;20510;-71
2022/08/18 12:12:30;;;;;;;9.73;4.72;;;33.00;36.00;;;;;;5055969;28;20029;-71
2022/08/18 12:14:58;;;;;;;7.00;4.47;;;33.10;35.70;;;;;;5038150;28;20024;-71
2022/08/18 12:17:25;;;;;;;7.30;4.43;;;33.20;36.40;;;;;;5054629;28;20040;-71
2022/08/18 12:19:51;;;;;;;11.68;4.55;;;33.20;35.50;;;;;;5055806;28;20398;-71
2022/08/18 12:22:26;;;;;;;10.02;5.55;;;33.30;35.60;;;;;;5027693;28;20110;-71
2022/08/18 12:24:53;;;;;;;6.55;4.78;;;33.30;35.80;;;;;;5033325;28;20033;-71
2022/08/18 12:27:22;;;;;;;5.45;4.35;;;33.40;35.70;;;;;;5041673;28;20033;-71
2022/08/18 12:29:49;;;;;;;6.25;4.43;;;33.40;35.50;;;;;;5054373;28;20028;-71
2022/08/18 12:32:15;;;;;;;7.50;4.18;;;33.50;35.50;;;;;;5036439;28;20021;-71
2022/08/18 12:34:42;;;;;;;5.47;4.28;;;33.60;35.40;;;;;;5053164;28;20044;-71
2022/08/18 12:37:09;;;;;;;9.65;4.93;;;33.60;35.10;;;;;;5036474;28;20028;-71
2022/08/18 12:39:37;;;;;;;6.75;4.30;;;33.70;34.80;;;;;;5036053;28;20081;-71
2022/08/18 12:42:03;;;;;;;5.05;3.72;;;33.70;34.30;;;;;;5036330;28;20033;-71
2022/08/18 12:44:29;;;;;;;5.07;3.97;;;33.80;34.50;;;;;;5054275;28;20036;-71
2022/08/18 12:46:55;;;;;;;6.88;4.50;;;33.80;34.00;;;;;;5054023;28;20033;-70
2022/08/18 12:49:23;;;;;;;5.15;4.22;;;33.80;33.90;;;;;;5036240;28;20098;-71
2022/08/18 12:51:50;;;;;;;5.10;4.20;;;33.90;34.00;;;;;;5036291;28;20017;-70
2022/08/18 12:54:17;;;;;;;4.95;4.25;;;34.00;34.00;;;;;;5036133;28;20044;-71
2022/08/18 12:56:49;;;;;;;5.65;4.15;;;34.00;33.90;;;;;;5050169;28;20071;-71
2022/08/18 12:59:14;;;;;;;9.40;4.57;;;34.20;33.70;;;;;;5034157;28;20025;-71
2022/08/18 13:01:41;;;;;;;6.32;4.05;;;34.30;33.30;;;;;;5034024;28;20514;-71
2022/08/18 13:04:07;;;;;;;6.63;4.50;;;34.50;33.40;;;;;;5032634;28;20487;-71
2022/08/18 13:06:36;;;;;;;10.73;4.13;;;34.70;33.00;;;;;;5034029;28;20035;-71
2022/08/18 13:09:03;;;;;;;9.30;4.40;;;34.80;33.00;;;;;;5033858;28;20025;-71
2022/08/18 13:11:28;;;;;;;5.90;4.30;;;34.90;32.90;;;;;;5033930;28;20029;-71
2022/08/18 13:13:55;;;;;;;8.20;4.07;;;35.00;32.60;;;;;;5033859;28;20021;-71
2022/08/18 13:16:21;;;;;;;8.23;4.50;;;35.10;32.40;;;;;;5033666;28;20026;-71
2022/08/18 13:18:47;;;;;;;5.00;4.05;;;35.20;32.20;;;;;;5033504;28;20101;-71
2022/08/18 13:21:14;;;;;;;9.67;4.23;;;35.30;31.70;;;;;;4973736;28;1208265;-71
2022/08/18 13:23:41;;;;;;;9.90;4.50;;;35.40;32.00;;;;;;5034465;28;20276;-71
2022/08/18 13:26:11;;;;;;;6.00;3.80;;;35.50;32.00;;;;;;5033353;28;20108;-71